createdAt,value
2023-01-02T00:01:18.261Z,85.40
2023-01-02T00:03:46.338Z,78.67
2023-01-02T00:06:14.756Z,69.73
2023-01-02T00:08:42.688Z,75.83
2023-01-02T00:11:10.610Z,87.60
2023-01-02T00:13:39.971Z,70.07
2023-01-02T00:16:08.733Z,80.70
2023-01-02T00:18:36.687Z,98.70
2023-01-02T00:21:05.912Z,83.00
2023-01-02T00:23:34.443Z,105.60
2023-01-02T00:26:02.668Z,100.93
2023-01-02T00:28:30.943Z,93.50
2023-01-02T00:31:00.297Z,86.20
2023-01-02T00:33:28.199Z,80.10
2023-01-02T00:35:56.122Z,101.83
2023-01-02T00:38:24.012Z,109.27
2023-01-02T00:40:51.952Z,86.73
2023-01-02T00:43:19.897Z,129.63
2023-01-02T00:45:48.764Z,87.93
2023-01-02T00:48:18.033Z,73.90
2023-01-02T00:50:46.098Z,86.30
2023-01-02T00:53:14.106Z,67.93
2023-01-02T00:55:42.078Z,67.77
2023-01-02T00:58:10.020Z,115.87
2023-01-02T01:00:38.174Z,85.60
2023-01-02T01:03:06.330Z,92.10
2023-01-02T01:05:35.689Z,100.10
2023-01-02T01:08:03.628Z,79.67
2023-01-02T01:10:31.560Z,107.57
2023-01-02T01:12:59.469Z,96.70
2023-01-02T01:15:27.439Z,100.80
2023-01-02T01:17:55.412Z,72.63
2023-01-02T01:20:23.512Z,127.73
2023-01-02T01:22:52.829Z,66.40
2023-01-02T01:25:20.764Z,98.50
2023-01-02T01:27:48.747Z,85.63
2023-01-02T01:30:16.661Z,100.63
2023-01-02T01:32:44.572Z,67.77
2023-01-02T01:35:12.502Z,83.77
2023-01-02T01:37:40.601Z,56.53
2023-01-02T01:40:10.675Z,67.73
2023-01-02T01:42:38.610Z,93.33
2023-01-02T01:45:14.613Z,66.80
2023-01-02T01:47:46.058Z,58.07
2023-01-02T01:50:19.396Z,60.77
2023-01-02T01:52:51.291Z,113.57
2023-01-02T01:55:23.514Z,75.13
2023-01-02T01:57:54.951Z,63.90
2023-01-02T02:00:22.945Z,94.77
2023-01-02T02:02:53.404Z,136.03
2023-01-02T02:05:24.807Z,74.13
2023-01-02T02:08:04.865Z,68.63
2023-01-02T02:10:34.503Z,81.87
2023-01-02T02:13:02.415Z,68.00
2023-01-02T02:15:40.503Z,77.83
2023-01-02T02:18:18.652Z,102.73
2023-01-02T02:20:52.569Z,69.50
2023-01-02T02:23:54.157Z,93.17
2023-01-02T02:27:00.810Z,59.67
2023-01-02T02:30:02.147Z,70.63
2023-01-02T02:32:38.580Z,81.80
2023-01-02T02:35:15.796Z,63.43
2023-01-02T02:37:53.883Z,53.27
2023-01-02T02:40:31.667Z,106.00
2023-01-02T02:43:09.588Z,73.37
2023-01-02T02:45:49.283Z,83.53
2023-01-02T02:48:24.287Z,81.80
2023-01-02T02:51:01.648Z,125.40
2023-01-02T02:53:36.905Z,79.07
2023-01-02T02:56:08.625Z,57.33
2023-01-02T02:58:38.958Z,79.67
2023-01-02T03:01:13.713Z,74.77
2023-01-02T03:03:41.706Z,62.53
2023-01-02T03:06:22.263Z,56.93
2023-01-02T03:09:05.147Z,60.60
2023-01-02T03:11:40.956Z,71.70
2023-01-02T03:14:18.671Z,56.53
2023-01-02T03:16:50.728Z,65.40
2023-01-02T03:19:28.539Z,159.27
2023-01-02T03:22:02.464Z,88.37
2023-01-02T03:24:31.959Z,61.40
2023-01-02T03:27:04.676Z,70.57
2023-01-02T03:29:37.679Z,55.93
2023-01-02T03:32:11.756Z,52.07
2023-01-02T03:34:41.623Z,56.00
2023-01-02T03:37:12.725Z,56.00
2023-01-02T03:39:45.868Z,46.50
2023-01-02T03:42:17.580Z,60.53
2023-01-02T03:44:49.576Z,98.20
2023-01-02T03:47:28.060Z,55.53
2023-01-02T03:50:00.302Z,55.20
2023-01-02T03:52:28.209Z,53.00
2023-01-02T03:54:57.988Z,67.23
2023-01-02T03:57:34.417Z,56.17
2023-01-02T04:00:06.953Z,54.70
2023-01-02T04:02:39.952Z,69.63
2023-01-02T04:05:16.315Z,59.80
2023-01-02T04:07:52.710Z,83.23
2023-01-02T04:10:21.696Z,59.73
2023-01-02T04:12:56.020Z,53.30
2023-01-02T04:15:27.625Z,63.27
2023-01-02T04:18:02.062Z,62.13
2023-01-02T04:20:33.103Z,79.30
2023-01-02T04:23:05.465Z,75.37
2023-01-02T04:25:39.695Z,50.40
2023-01-02T04:28:12.556Z,66.20
2023-01-02T04:30:43.907Z,70.40
2023-01-02T04:33:15.524Z,73.93
2023-01-02T04:35:43.569Z,55.60
2023-01-02T04:38:13.200Z,54.00
2023-01-02T04:40:41.820Z,53.13
2023-01-02T04:43:17.887Z,52.77
2023-01-02T04:45:45.813Z,57.53
2023-01-02T04:48:15.118Z,72.10
2023-01-02T04:50:43.087Z,58.00
2023-01-02T04:53:11.076Z,69.63
2023-01-02T04:55:39.729Z,51.37
2023-01-02T04:58:08.309Z,52.87
2023-01-02T05:00:36.272Z,59.87
2023-01-02T05:03:05.300Z,50.67
2023-01-02T05:05:34.734Z,59.97
2023-01-02T05:08:02.665Z,49.53
2023-01-02T05:10:30.613Z,73.10
2023-01-02T05:12:59.913Z,68.40
2023-01-02T05:15:27.878Z,52.87
2023-01-02T05:17:56.164Z,51.67
2023-01-02T05:20:24.282Z,51.23
2023-01-02T05:23:10.954Z,54.43
2023-01-02T05:25:38.881Z,63.60
2023-01-02T05:28:06.803Z,50.37
2023-01-02T05:30:34.806Z,60.10
2023-01-02T05:33:02.753Z,87.07
2023-01-02T05:35:33.223Z,67.50
2023-01-02T05:38:03.262Z,50.57
2023-01-02T05:40:31.605Z,50.17
2023-01-02T05:42:59.983Z,57.87
2023-01-02T05:45:27.922Z,50.53
2023-01-02T05:47:56.020Z,57.47
2023-01-02T05:50:24.108Z,59.37
2023-01-02T05:52:52.052Z,111.77
2023-01-02T05:55:21.308Z,70.20
2023-01-02T05:57:49.679Z,64.40
2023-01-02T06:00:18.098Z,61.80
2023-01-02T06:02:48.206Z,55.10
2023-01-02T06:05:16.967Z,60.97
2023-01-02T06:07:45.066Z,60.20
2023-01-02T06:10:13.116Z,50.87
2023-01-02T06:12:42.471Z,55.13
2023-01-02T06:15:11.032Z,52.83
2023-01-02T06:17:38.954Z,59.20
2023-01-02T06:20:08.149Z,70.60
2023-01-02T06:22:36.147Z,194.57
2023-01-02T06:25:04.319Z,66.23
2023-01-02T06:27:33.669Z,106.03
2023-01-02T06:30:03.007Z,75.63
2023-01-02T06:32:31.169Z,53.83
2023-01-02T06:34:59.085Z,62.97
2023-01-02T06:37:27.260Z,87.77
2023-01-02T06:39:55.190Z,55.23
2023-01-02T06:42:23.167Z,62.63
2023-01-02T06:44:51.093Z,58.33
2023-01-02T06:47:20.357Z,57.27
2023-01-02T06:49:48.276Z,72.80
2023-01-02T06:52:16.197Z,66.40
2023-01-02T06:54:44.172Z,60.70
2023-01-02T06:57:12.107Z,156.90
2023-01-02T06:59:40.030Z,85.27
2023-01-02T07:02:08.079Z,51.47
2023-01-02T07:04:37.389Z,57.60
2023-01-02T07:07:05.635Z,73.17
2023-01-02T07:09:33.799Z,85.63
2023-01-02T07:12:01.806Z,82.23
2023-01-02T07:14:29.980Z,76.93
2023-01-02T07:16:57.968Z,90.23
2023-01-02T07:19:26.012Z,99.93
2023-01-02T07:21:55.309Z,77.50
2023-01-02T07:24:23.226Z,74.47
2023-01-02T07:26:51.155Z,58.63
2023-01-02T07:29:19.041Z,67.70
2023-01-02T07:31:46.996Z,62.93
2023-01-02T07:34:15.024Z,48.57
2023-01-02T07:36:42.916Z,61.27
2023-01-02T07:39:12.209Z,51.27
2023-01-02T07:41:40.123Z,63.43
2023-01-02T07:44:08.121Z,48.00
2023-01-02T07:46:36.343Z,67.90
2023-01-02T07:49:04.382Z,69.60
2023-01-02T07:51:32.541Z,85.17
2023-01-02T07:54:00.567Z,94.90
2023-01-02T07:56:29.896Z,98.93
2023-01-02T07:58:57.835Z,93.83
2023-01-02T08:01:26.081Z,114.23
2023-01-02T08:03:54.101Z,91.77
2023-01-02T08:06:22.099Z,81.47
2023-01-02T08:08:50.091Z,56.10
2023-01-02T08:11:19.955Z,50.27
2023-01-02T08:13:49.779Z,70.07
2023-01-02T08:16:19.875Z,60.80
2023-01-02T08:18:51.266Z,75.33
2023-01-02T08:21:19.361Z,80.37
2023-01-02T08:23:47.290Z,60.10
2023-01-02T08:26:15.547Z,80.73
2023-01-02T08:28:43.900Z,78.17
2023-01-02T08:31:16.284Z,67.53
2023-01-02T08:33:44.418Z,72.50
2023-01-02T08:36:14.456Z,62.13
2023-01-02T08:38:42.692Z,53.97
2023-01-02T08:41:10.900Z,63.73
2023-01-02T08:43:39.296Z,51.83
2023-01-02T08:46:08.740Z,57.93
2023-01-02T08:48:38.126Z,47.17
2023-01-02T08:51:06.660Z,55.37
2023-01-02T08:53:34.659Z,54.10
2023-01-02T08:56:20.056Z,52.83
2023-01-02T08:58:52.879Z,63.17
2023-01-02T09:01:21.402Z,50.33
2023-01-02T09:03:51.295Z,53.83
2023-01-02T09:06:22.380Z,53.03
2023-01-02T09:08:52.979Z,56.63
2023-01-02T09:11:24.069Z,70.17
2023-01-02T09:13:52.216Z,48.70
2023-01-02T09:16:20.315Z,51.40
2023-01-02T09:18:48.419Z,46.17
2023-01-02T09:21:18.085Z,60.53
2023-01-02T09:23:46.005Z,50.60
2023-01-02T09:26:14.936Z,44.27
2023-01-02T09:28:42.991Z,45.23
2023-01-02T09:31:14.367Z,55.90
2023-01-02T09:33:44.185Z,55.63
2023-01-02T09:36:15.233Z,51.40
2023-01-02T09:38:44.631Z,61.53
2023-01-02T09:41:27.713Z,53.73
2023-01-02T09:43:59.233Z,43.10
2023-01-02T09:46:32.628Z,58.87
2023-01-02T09:49:01.533Z,39.77
2023-01-02T09:51:30.185Z,46.20
2023-01-02T09:53:59.501Z,46.93
2023-01-02T09:56:34.348Z,49.50
2023-01-02T09:59:11.105Z,41.40
2023-01-02T10:01:52.615Z,50.90
2023-01-02T10:04:32.713Z,44.03
2023-01-02T10:07:08.722Z,39.47
2023-01-02T10:09:48.714Z,52.40
2023-01-02T10:12:22.580Z,51.07
2023-01-02T10:14:55.555Z,69.73
2023-01-02T10:17:24.435Z,59.40
2023-01-02T10:19:59.431Z,56.40
2023-01-02T10:22:33.712Z,59.97
2023-01-02T10:25:08.400Z,39.87
2023-01-02T10:27:40.906Z,46.03
2023-01-02T10:30:19.563Z,34.40
2023-01-02T10:32:53.991Z,42.03
2023-01-02T10:35:34.854Z,41.50
2023-01-02T10:38:03.489Z,40.50
2023-01-02T10:40:34.267Z,47.10
2023-01-02T10:43:02.958Z,39.30
2023-01-02T10:45:31.573Z,46.20
2023-01-02T10:47:59.515Z,36.23
2023-01-02T10:50:30.685Z,33.00
2023-01-02T10:53:08.178Z,39.07
2023-01-02T10:55:40.217Z,39.27
2023-01-02T10:58:15.187Z,36.00
2023-01-02T11:00:43.432Z,45.20
2023-01-02T11:03:16.449Z,61.83
2023-01-02T11:05:47.157Z,42.57
2023-01-02T11:08:17.405Z,36.70
2023-01-02T11:10:47.624Z,33.93
2023-01-02T11:13:18.071Z,42.23
2023-01-02T11:15:51.367Z,53.87
2023-01-02T11:18:23.665Z,30.80
2023-01-02T11:20:54.431Z,32.53
2023-01-02T11:23:25.292Z,35.70
2023-01-02T11:25:55.527Z,42.90
2023-01-02T11:28:27.339Z,36.20
2023-01-02T11:31:01.263Z,30.40
2023-01-02T11:33:30.662Z,30.13
2023-01-02T11:36:05.741Z,30.83
2023-01-02T11:38:44.308Z,36.63
2023-01-02T11:41:46.438Z,39.57
2023-01-02T11:44:20.762Z,50.23
2023-01-02T11:46:50.369Z,30.00
2023-01-02T11:49:21.827Z,32.90
2023-01-02T11:51:55.756Z,35.80
2023-01-02T11:54:28.138Z,29.57
2023-01-02T11:57:00.616Z,33.63
2023-01-02T11:59:33.354Z,25.10
2023-01-02T12:02:11.672Z,61.13
2023-01-02T12:04:39.963Z,46.30
2023-01-02T12:07:21.382Z,61.37
2023-01-02T12:09:55.376Z,43.60
2023-01-02T12:12:39.345Z,38.03
2023-01-02T12:15:29.961Z,36.30
2023-01-02T12:18:05.997Z,33.80
2023-01-02T12:20:42.036Z,33.63
2023-01-02T12:23:37.089Z,28.53
2023-01-02T12:26:11.524Z,27.47
2023-01-02T12:29:06.457Z,33.67
2023-01-02T12:31:52.829Z,36.20
2023-01-02T12:34:34.400Z,31.57
2023-01-02T12:37:13.312Z,31.50
2023-01-02T12:40:16.585Z,33.07
2023-01-02T12:43:03.274Z,34.43
2023-01-02T12:45:41.445Z,39.63
2023-01-02T12:48:21.919Z,45.77
2023-01-02T12:51:08.479Z,49.33
2023-01-02T12:54:18.947Z,43.10
2023-01-02T12:56:57.021Z,38.47
2023-01-02T12:59:48.637Z,45.03
2023-01-02T13:02:35.285Z,49.20
2023-01-02T13:05:08.525Z,92.93
2023-01-02T13:07:40.929Z,43.70
2023-01-02T13:10:15.810Z,66.13
2023-01-02T13:12:46.251Z,62.30
2023-01-02T13:15:20.641Z,77.40
2023-01-02T13:17:59.804Z,74.33
2023-01-02T13:20:36.890Z,60.13
2023-01-02T13:23:22.046Z,50.63
2023-01-02T13:25:53.900Z,53.77
2023-01-02T13:28:24.690Z,64.33
2023-01-02T13:31:44.009Z,40.77
2023-01-02T13:33:56.538Z,45.13
2023-01-02T13:36:28.313Z,50.70
2023-01-02T13:38:59.080Z,51.87
2023-01-02T13:41:28.011Z,41.63
2023-01-02T13:43:59.496Z,64.80
2023-01-02T13:47:01.893Z,52.53
2023-01-02T13:49:22.202Z,43.37
2023-01-02T13:51:50.176Z,47.83
2023-01-02T13:54:21.065Z,38.80
2023-01-02T13:57:18.117Z,47.60
2023-01-02T13:59:58.154Z,48.40
2023-01-02T14:02:26.750Z,41.30
2023-01-02T14:04:56.254Z,105.13
2023-01-02T14:07:46.278Z,82.43
2023-01-02T14:10:34.677Z,67.43
2023-01-02T14:13:10.789Z,67.27
2023-01-02T14:16:17.655Z,72.00
2023-01-02T14:18:46.912Z,86.30
2023-01-02T14:21:19.737Z,96.93
2023-01-02T14:24:17.057Z,101.53
2023-01-02T14:26:40.595Z,56.60
2023-01-02T14:29:16.638Z,92.50
2023-01-02T14:31:45.151Z,82.87
2023-01-02T14:34:22.456Z,75.10
2023-01-02T14:36:55.002Z,51.30
2023-01-02T14:39:27.312Z,43.43
2023-01-02T14:42:29.313Z,74.73
2023-01-02T14:45:00.811Z,66.73
2023-01-02T14:47:37.605Z,76.57
2023-01-02T14:50:10.870Z,47.83
2023-01-02T14:52:43.464Z,121.63
2023-01-02T14:55:16.838Z,95.17
2023-01-02T14:57:48.848Z,66.47
2023-01-02T15:00:26.888Z,70.23
2023-01-02T15:02:59.454Z,84.50
2023-01-02T15:05:34.839Z,76.93
2023-01-02T15:08:08.223Z,61.97
2023-01-02T15:10:55.508Z,41.27
2023-01-02T15:13:26.436Z,48.83
2023-01-02T15:15:57.572Z,50.90
2023-01-02T15:18:29.254Z,55.93
2023-01-02T15:21:03.812Z,88.87
2023-01-02T15:23:33.203Z,70.47
2023-01-02T15:26:32.481Z,66.37
2023-01-02T15:28:57.050Z,115.27
2023-01-02T15:31:25.013Z,60.20
2023-01-02T15:33:54.269Z,117.90
2023-01-02T15:36:33.908Z,68.33
2023-01-02T15:39:16.747Z,46.77
2023-01-02T15:41:47.199Z,39.40
2023-01-02T15:44:38.119Z,34.90
2023-01-02T15:47:08.362Z,42.30
2023-01-02T15:49:37.261Z,70.07
2023-01-02T15:52:06.082Z,51.77
2023-01-02T15:54:37.558Z,61.90
2023-01-02T15:57:11.645Z,53.27
2023-01-02T15:59:39.751Z,44.73
2023-01-02T16:02:18.882Z,50.63
2023-01-02T16:04:47.369Z,53.27
2023-01-02T16:07:29.737Z,41.83
2023-01-02T16:09:59.021Z,38.70
2023-01-02T16:12:27.038Z,32.70
2023-01-02T16:14:57.926Z,39.67
2023-01-02T16:17:28.364Z,46.90
2023-01-02T16:19:59.798Z,41.10
2023-01-02T16:22:30.521Z,46.57
2023-01-02T16:25:05.746Z,52.63
2023-01-02T16:27:37.265Z,43.13
2023-01-02T16:30:16.676Z,28.90
2023-01-02T16:32:49.190Z,47.43
2023-01-02T16:35:22.546Z,34.73
2023-01-02T16:37:53.876Z,30.37
2023-01-02T16:41:01.908Z,37.53
2023-01-02T16:43:33.438Z,56.83
2023-01-02T16:46:04.780Z,43.87
2023-01-02T16:48:33.740Z,38.80
2023-01-02T16:51:01.691Z,48.33
2023-01-02T16:53:32.850Z,61.83
2023-01-02T16:56:02.229Z,59.90
2023-01-02T16:58:30.143Z,42.13
2023-01-02T17:00:58.246Z,58.20
2023-01-02T17:03:27.818Z,50.40
2023-01-02T17:06:02.382Z,35.53
2023-01-02T17:08:31.335Z,46.97
2023-01-02T17:10:59.723Z,40.10
2023-01-02T17:13:29.984Z,39.90
2023-01-02T17:15:58.103Z,43.03
2023-01-02T17:18:26.472Z,56.70
2023-01-02T17:20:54.424Z,37.77
2023-01-02T17:23:22.546Z,32.10
2023-01-02T17:25:50.488Z,40.37
2023-01-02T17:28:18.931Z,52.30
2023-01-02T17:30:50.028Z,40.33
2023-01-02T17:33:18.647Z,34.70
2023-01-02T17:35:46.743Z,31.53
2023-01-02T17:38:15.122Z,34.10
2023-01-02T17:40:43.159Z,36.03
2023-01-02T17:43:11.121Z,28.97
2023-01-02T17:45:39.144Z,33.60
2023-01-02T17:48:12.697Z,33.20
2023-01-02T17:50:42.376Z,26.73
2023-01-02T17:53:10.363Z,29.57
2023-01-02T17:55:38.498Z,29.37
2023-01-02T17:58:06.468Z,29.20
2023-01-02T18:00:34.451Z,30.23
2023-01-02T18:03:02.531Z,31.10
2023-01-02T18:05:32.805Z,34.80
2023-01-02T18:08:00.709Z,36.43
2023-01-02T18:10:32.969Z,37.77
2023-01-02T18:13:01.288Z,44.23
2023-01-02T18:15:29.531Z,44.67
2023-01-02T18:18:00.530Z,48.03
2023-01-02T18:20:28.640Z,39.00
2023-01-02T18:22:58.827Z,49.40
2023-01-02T18:25:32.424Z,47.03
2023-01-02T18:28:03.947Z,42.97
2023-01-02T18:30:32.414Z,56.77
2023-01-02T18:33:07.979Z,66.23
2023-01-02T18:38:31.174Z,63.83
2023-01-02T18:40:59.339Z,71.03
2023-01-02T18:43:29.777Z,66.83
2023-01-02T18:45:59.967Z,63.50
2023-01-02T18:48:28.019Z,54.57
2023-01-02T18:51:01.529Z,52.77
2023-01-02T18:53:36.485Z,48.93
2023-01-02T18:56:13.272Z,50.30
2023-01-02T18:58:43.528Z,43.50
2023-01-02T19:01:25.959Z,46.80
2023-01-02T19:03:58.252Z,35.87
2023-01-02T19:06:28.567Z,40.00
2023-01-02T19:09:08.017Z,40.10
2023-01-02T19:11:53.493Z,40.93
2023-01-02T19:14:24.620Z,47.30
2023-01-02T19:17:05.706Z,40.93
2023-01-02T19:19:40.356Z,54.50
2023-01-02T19:22:14.283Z,49.80
2023-01-02T19:24:43.603Z,50.97
2023-01-02T19:27:22.954Z,47.30
2023-01-02T19:29:52.260Z,59.30
2023-01-02T19:32:31.236Z,50.97
2023-01-02T19:35:01.669Z,50.47
2023-01-02T19:37:38.907Z,44.60
2023-01-02T19:40:19.027Z,46.20
2023-01-02T19:42:47.686Z,53.87
2023-01-02T19:45:17.492Z,42.80
2023-01-02T19:47:45.726Z,33.73
2023-01-02T19:50:15.784Z,41.00
2023-01-02T19:52:43.911Z,42.37
2023-01-02T19:55:14.329Z,38.70
2023-01-02T19:57:42.578Z,42.43
2023-01-02T20:00:13.685Z,34.43
2023-01-02T20:02:42.469Z,40.60
2023-01-02T20:05:13.577Z,45.70
2023-01-02T20:07:44.783Z,41.63
2023-01-02T20:10:14.657Z,71.50
2023-01-02T20:12:42.656Z,44.93
2023-01-02T20:15:12.740Z,53.67
2023-01-02T20:17:41.060Z,52.70
2023-01-02T20:20:13.128Z,91.00
2023-01-02T20:22:41.551Z,95.70
2023-01-02T20:25:09.988Z,227.67
2023-01-02T20:27:39.365Z,127.00
2023-01-02T20:30:08.660Z,383.87
2023-01-02T20:32:37.003Z,187.63
2023-01-02T20:35:05.465Z,242.10
2023-01-02T20:37:34.150Z,258.97
2023-01-02T20:40:02.150Z,356.87
2023-01-02T20:42:30.229Z,293.70
2023-01-02T20:44:59.518Z,259.53
2023-01-02T20:47:27.422Z,222.43
2023-01-02T20:49:55.408Z,169.17
2023-01-02T20:52:23.413Z,214.03
2023-01-02T20:54:51.594Z,230.53
2023-01-02T20:57:19.547Z,189.53
2023-01-02T20:59:47.605Z,195.13
2023-01-02T21:02:17.066Z,236.07
2023-01-02T21:04:45.369Z,229.70
2023-01-02T21:07:13.327Z,97.90
2023-01-02T21:09:41.290Z,288.77
2023-01-02T21:12:29.331Z,425.20
2023-01-02T21:14:58.136Z,235.27
2023-01-02T21:17:27.434Z,208.40
2023-01-02T21:19:55.348Z,269.90
2023-01-02T21:22:23.314Z,275.97
2023-01-02T21:24:51.364Z,289.87
2023-01-02T21:27:19.542Z,304.10
2023-01-02T21:29:47.774Z,301.73
2023-01-02T21:32:15.736Z,184.70
2023-01-02T21:34:45.257Z,252.27
2023-01-02T21:37:13.195Z,321.33
2023-01-02T21:39:41.163Z,261.93
2023-01-02T21:42:17.765Z,279.50
2023-01-02T21:44:47.679Z,250.27
2023-01-02T21:47:16.259Z,92.67
2023-01-02T21:49:45.786Z,197.50
2023-01-02T21:52:13.771Z,254.40
2023-01-02T21:54:41.735Z,257.00
2023-01-02T21:57:09.956Z,195.90
2023-01-02T21:59:38.067Z,182.93
2023-01-02T22:02:06.695Z,195.53
2023-01-02T22:04:35.638Z,127.13
2023-01-02T22:07:30.549Z,230.07
2023-01-02T22:09:52.910Z,161.90
2023-01-02T22:12:20.949Z,151.43
2023-01-02T22:14:49.009Z,74.10
2023-01-02T22:17:16.988Z,173.83
2023-01-02T22:19:44.880Z,138.17
2023-01-02T22:22:14.326Z,60.10
2023-01-02T22:24:44.661Z,58.50
2023-01-02T22:27:14.489Z,130.83
2023-01-02T22:32:33.536Z,62.40
2023-01-02T22:35:03.464Z,68.47
2023-01-02T22:37:32.901Z,70.00
2023-01-02T22:40:01.552Z,67.17
2023-01-02T22:43:00.481Z,58.87
2023-01-02T22:45:32.022Z,43.50
2023-01-02T22:48:04.686Z,76.83
2023-01-02T22:50:45.674Z,59.07
2023-01-02T22:53:24.291Z,45.07
2023-01-02T22:55:52.466Z,44.90
2023-01-02T22:58:21.240Z,42.63
2023-01-02T23:00:54.371Z,52.03
2023-01-02T23:03:22.433Z,36.53
2023-01-02T23:05:50.317Z,37.40
2023-01-02T23:08:18.227Z,33.67
2023-01-02T23:10:47.729Z,30.20
2023-01-02T23:13:15.690Z,33.10
2023-01-02T23:15:57.639Z,30.60
2023-01-02T23:18:43.105Z,34.70
2023-01-02T23:21:11.414Z,29.80
2023-01-02T23:23:39.400Z,28.83
2023-01-02T23:26:09.043Z,29.67
2023-01-02T23:29:06.112Z,33.00
2023-01-02T23:31:24.935Z,29.77
2023-01-02T23:33:52.916Z,26.40
2023-01-02T23:36:20.876Z,23.00
2023-01-02T23:38:48.857Z,28.57
2023-01-02T23:41:18.168Z,29.50
2023-01-02T23:43:46.114Z,21.90
2023-01-02T23:46:14.140Z,24.70
2023-01-02T23:48:42.091Z,25.90
2023-01-02T23:51:10.014Z,28.97
2023-01-02T23:53:37.952Z,28.40
2023-01-02T23:56:11.762Z,27.00
2023-01-02T23:58:41.002Z,27.30
